Time;durP1;ratioP1;P1;durP2;ratioP2;P2;SDS_P1;SDS_P2;PMS_P1;PMS_P2;Temp;Humidity;BMP_temperature;BMP_pressure;BME280_temperature;BME280_humidity;BME280_pressure;Samples;Min_cycle;Max_cycle;Signal;HPM_P1;HPM_P2
2022/04/24 00:02:01;;;;;;;77.08;42.10;;;;;;;3.03;75.37;98170.05;4044670;86;21886;-90
2022/04/24 00:08:03;;;;;;;92.17;50.28;;;;;;;3.07;75.14;98170.91;4045782;86;21093;-90
2022/04/24 00:14:09;;;;;;;82.75;47.23;;;;;;;2.92;74.95;98158.95;4037879;86;21046;-88
2022/04/24 00:20:09;;;;;;;93.15;52.60;;;;;;;2.69;75.44;98147.66;4048332;85;21093;-88
2022/04/24 00:26:10;;;;;;;116.05;57.45;;;;;;;2.50;75.30;98136.14;4034706;86;21082;-89
2022/04/24 00:32:12;;;;;;;110.42;56.60;;;;;;;2.50;76.28;98151.55;3964573;87;21125;-88
2022/04/24 00:38:13;;;;;;;138.95;68.70;;;;;;;2.63;75.82;98134.95;3968023;87;21082;-89
2022/04/24 00:44:18;;;;;;;155.65;72.08;;;;;;;2.70;76.94;98126.26;3968744;87;21769;-88
2022/04/24 00:50:26;;;;;;;116.65;59.25;;;;;;;2.81;77.19;98114.62;3968311;87;21214;-88
2022/04/24 00:56:31;;;;;;;118.67;62.73;;;;;;;3.08;79.24;98113.81;3965038;87;21150;-88
2022/04/24 01:02:30;;;;;;;104.40;59.15;;;;;;;3.17;78.53;98103.61;3970887;87;21087;-87
2022/04/24 01:08:35;;;;;;;144.85;73.95;;;;;;;3.34;79.36;98116.55;3973419;87;21103;-88
2022/04/24 01:14:37;;;;;;;143.75;68.30;;;;;;;3.45;78.22;98100.02;3964294;87;21094;-86
2022/04/24 01:20:38;;;;;;;130.55;66.30;;;;;;;3.51;78.57;98104.83;3967247;87;21068;-88
2022/04/24 01:26:40;;;;;;;142.72;68.00;;;;;;;3.68;79.93;98094.22;3971426;87;21112;-89
2022/04/24 01:32:43;;;;;;;129.82;63.58;;;;;;;3.83;80.10;98090.13;3970009;87;21083;-87
2022/04/24 01:38:45;;;;;;;121.05;60.52;;;;;;;4.01;80.09;98092.66;3966688;88;21089;-90
2022/04/24 01:44:46;;;;;;;125.05;61.15;;;;;;;4.16;80.58;98091.05;3961292;87;21157;-89
2022/04/24 01:50:47;;;;;;;97.22;52.90;;;;;;;4.31;80.61;98084.78;4039074;86;21124;-88
2022/04/24 01:56:49;;;;;;;96.75;51.37;;;;;;;4.39;80.45;98079.17;3977577;88;21023;-90
2022/04/24 02:02:51;;;;;;;82.37;43.55;;;;;;;4.42;80.27;98070.33;3993250;87;21900;-91
2022/04/24 02:08:52;;;;;;;91.00;49.20;;;;;;;4.43;79.55;98072.48;3986080;87;21063;-89
2022/04/24 02:14:54;;;;;;;91.28;49.67;;;;;;;4.48;80.27;98071.61;3987008;88;21092;-88
2022/04/24 02:20:55;;;;;;;94.40;48.83;;;;;;;4.48;79.94;98056.70;3981919;88;21057;-89
2022/04/24 02:26:56;;;;;;;86.50;46.80;;;;;;;4.55;80.12;98050.08;3986287;87;21096;-87
2022/04/24 02:33:00;;;;;;;87.60;48.25;;;;;;;4.57;80.17;98045.06;3984789;87;21072;-89
2022/04/24 02:39:01;;;;;;;71.77;40.43;;;;;;;4.65;80.82;98046.01;3983683;87;22300;-88
2022/04/24 02:45:05;;;;;;;72.90;40.80;;;;;;;4.66;80.55;98036.16;3991134;87;22257;-90
2022/04/24 02:51:07;;;;;;;80.38;42.93;;;;;;;4.65;80.53;98037.28;3963228;87;21101;-88
2022/04/24 02:57:08;;;;;;;66.82;39.25;;;;;;;4.69;80.96;98031.38;3990866;88;21083;-90
2022/04/24 03:03:10;;;;;;;64.10;36.08;;;;;;;4.74;81.67;98020.20;3989762;87;21096;-89
2022/04/24 03:09:12;;;;;;;61.05;35.13;;;;;;;4.80;81.82;98012.02;3982958;87;22026;-89
2022/04/24 03:15:15;;;;;;;53.33;31.00;;;;;;;4.84;81.46;98013.41;3984898;85;54301;-93
2022/04/24 03:21:17;;;;;;;49.13;30.48;;;;;;;4.93;82.12;98022.68;4081567;85;21138;-90
2022/04/24 03:27:18;;;;;;;50.52;30.65;;;;;;;4.96;81.48;98022.75;4093986;85;21733;-89
2022/04/24 03:33:20;;;;;;;52.43;30.35;;;;;;;4.99;81.80;98019.31;4110291;85;21612;-87
2022/04/24 03:39:22;;;;;;;50.40;29.20;;;;;;;5.05;82.39;98021.93;4099606;85;21067;-88
2022/04/24 03:45:24;;;;;;;50.50;31.10;;;;;;;5.10;82.65;98053.40;4110200;85;21036;-88
2022/04/24 03:51:25;;;;;;;58.98;35.30;;;;;;;5.20;82.85;98066.38;4119970;85;21034;-89
2022/04/24 03:57:29;;;;;;;56.58;32.73;;;;;;;5.29;83.03;98075.05;4110927;85;21121;-86
2022/04/24 04:03:31;;;;;;;58.28;35.20;;;;;;;5.33;83.04;98067.73;4121118;85;21621;-91
2022/04/24 04:09:32;;;;;;;78.87;40.28;;;;;;;5.34;83.21;98065.25;4115416;85;21073;-91
2022/04/24 04:15:35;;;;;;;64.17;37.13;;;;;;;5.34;83.18;98057.11;4099550;85;21032;-86
2022/04/24 04:21:36;;;;;;;67.25;38.40;;;;;;;5.39;83.65;98054.86;4101135;85;21047;-90
2022/04/24 04:27:37;;;;;;;80.00;45.88;;;;;;;5.41;83.79;98055.30;4094672;85;21414;-90
2022/04/24 04:33:39;;;;;;;70.08;42.45;;;;;;;5.45;84.11;98049.33;4040146;87;21071;-86
2022/04/24 04:39:41;;;;;;;65.32;41.35;;;;;;;5.47;84.11;98044.90;4044291;86;21066;-93
2022/04/24 04:45:42;;;;;;;72.08;43.90;;;;;;;5.52;84.47;98044.59;4040233;87;21059;-87
2022/04/24 04:51:44;;;;;;;74.03;44.80;;;;;;;5.55;84.67;98044.66;4048708;86;21148;-87
2022/04/24 04:57:47;;;;;;;67.60;40.45;;;;;;;5.59;84.31;98035.98;4041073;87;21118;-87
2022/04/24 05:03:49;;;;;;;61.68;38.67;;;;;;;5.62;84.53;98021.67;4041115;86;21055;-88
2022/04/24 05:09:51;;;;;;;60.45;39.23;;;;;;;5.71;85.51;98012.72;4040773;86;21582;-88
2022/04/24 05:15:53;;;;;;;64.45;40.08;;;;;;;5.81;86.19;98017.50;4043021;87;21071;-86
2022/04/24 05:21:54;;;;;;;61.35;38.63;;;;;;;5.89;85.93;98031.98;4062546;85;21043;-87
2022/04/24 05:27:57;;;;;;;69.65;41.85;;;;;;;5.93;85.65;98033.63;4009439;86;21065;-87
2022/04/24 05:33:59;;;;;;;61.23;40.23;;;;;;;5.94;86.24;98016.73;4093517;85;22143;-87
2022/04/24 05:40:01;;;;;;;56.28;34.30;;;;;;;5.99;86.45;98033.51;4083005;85;21353;-86
2022/04/24 05:46:02;;;;;;;59.80;39.67;;;;;;;6.05;86.93;98027.96;4092064;85;21113;-89
2022/04/24 05:52:04;;;;;;;61.53;38.92;;;;;;;6.14;87.54;98027.10;4096655;85;21028;-87
2022/04/24 05:58:06;;;;;;;61.55;38.20;;;;;;;6.21;87.50;98021.77;4092059;85;22532;-88
2022/04/24 06:04:08;;;;;;;56.68;37.78;;;;;;;6.34;88.35;98019.59;4082945;85;21146;-87
2022/04/24 06:10:11;;;;;;;59.88;39.08;;;;;;;6.45;87.94;97998.77;4091008;85;21069;-87
2022/04/24 06:16:12;;;;;;;57.75;37.83;;;;;;;6.58;88.51;98000.05;4095545;85;21212;-88
2022/04/24 06:22:14;;;;;;;56.75;36.75;;;;;;;6.73;88.38;97990.91;4100021;85;21239;-89
2022/04/24 06:28:16;;;;;;;58.75;37.95;;;;;;;6.88;87.92;97991.23;4094231;85;21084;-88
2022/04/24 06:34:18;;;;;;;60.15;37.70;;;;;;;7.04;88.27;97982.25;4159729;84;21142;-89
2022/04/24 06:40:20;;;;;;;59.15;37.67;;;;;;;7.17;87.96;97978.06;4161254;84;21083;-89
2022/04/24 06:46:23;;;;;;;59.40;37.75;;;;;;;7.30;88.11;97968.46;4135940;84;21047;-89
2022/04/24 06:52:25;;;;;;;56.15;36.53;;;;;;;7.40;88.10;97969.12;4166154;84;21081;-88
2022/04/24 06:58:26;;;;;;;54.48;35.15;;;;;;;7.44;88.32;97980.81;4161458;84;21066;-89
2022/04/24 07:04:28;;;;;;;50.15;34.33;;;;;;;7.48;88.63;97978.12;4161947;84;21025;-86
2022/04/24 07:10:29;;;;;;;49.70;33.33;;;;;;;7.52;88.58;97976.19;4070502;86;21075;-87
2022/04/24 07:16:31;;;;;;;48.70;34.40;;;;;;;7.62;88.68;97975.50;4165345;84;21113;-88
2022/04/24 07:22:52;;;;;;;55.17;36.53;;;;;;;7.70;88.80;97965.64;4164654;84;21118;-89
2022/04/24 07:28:53;;;;;;;58.50;38.85;;;;;;;7.78;88.77;97958.28;4164422;84;21632;-90
2022/04/24 07:34:54;;;;;;;53.90;37.48;;;;;;;7.82;88.83;97961.80;4160638;84;21101;-88
2022/04/24 07:40:56;;;;;;;60.15;39.75;;;;;;;7.86;88.97;97955.20;4160266;84;21113;-88
2022/04/24 07:46:57;;;;;;;57.53;38.67;;;;;;;7.95;89.48;97951.53;4162316;83;21100;-89
2022/04/24 07:52:59;;;;;;;55.75;38.05;;;;;;;8.13;89.20;97958.44;4065018;86;21140;-89
2022/04/24 07:59:00;;;;;;;58.30;38.92;;;;;;;8.18;89.17;97943.65;4160775;84;21117;-87
2022/04/24 08:05:01;;;;;;;66.80;41.30;;;;;;;8.18;89.21;97950.47;4156641;84;21078;-87
2022/04/24 08:11:03;;;;;;;59.25;39.88;;;;;;;8.13;89.27;97947.53;4156192;84;21600;-87
2022/04/24 08:17:04;;;;;;;54.60;36.73;;;;;;;8.07;89.22;97950.43;4162124;84;21593;-90
2022/04/24 08:23:07;;;;;;;57.27;39.92;;;;;;;8.00;89.39;97959.95;4154422;84;21577;-88
2022/04/24 08:29:08;;;;;;;56.50;38.75;;;;;;;7.98;89.58;97948.08;4156852;84;21085;-89
2022/04/24 08:35:12;;;;;;;51.68;34.50;;;;;;;7.96;89.58;97950.97;4157558;84;21669;-89
2022/04/24 08:41:13;;;;;;;63.75;44.08;;;;;;;7.91;89.38;97940.42;4154573;84;21629;-88
2022/04/24 08:47:20;;;;;;;49.85;34.15;;;;;;;7.86;89.63;97932.04;4155951;84;21047;-89
2022/04/24 08:53:28;;;;;;;50.28;33.53;;;;;;;7.85;89.85;97932.42;4058772;86;21078;-88
2022/04/24 08:59:29;;;;;;;49.42;34.75;;;;;;;7.85;90.14;97935.14;4155845;84;21156;-89
2022/04/24 09:05:31;;;;;;;55.78;38.02;;;;;;;7.89;90.18;97931.27;4162799;84;21385;-89
2022/04/24 09:11:34;;;;;;;57.40;40.92;;;;;;;7.95;90.55;97930.34;4158784;84;21074;-87
2022/04/24 09:17:36;;;;;;;58.45;39.92;;;;;;;7.97;90.57;97927.42;4161833;84;21079;-89
2022/04/24 09:23:38;;;;;;;57.33;39.20;;;;;;;7.99;90.67;97924.30;4062225;86;21966;-87
2022/04/24 09:29:42;;;;;;;53.10;39.78;;;;;;;8.00;90.94;97917.11;4166097;84;21120;-89
2022/04/24 09:35:49;;;;;;;57.35;38.13;;;;;;;8.00;90.81;97916.35;4164497;84;21145;-87
2022/04/24 09:41:54;;;;;;;;;;;;;;;8.03;91.00;97914.79;4169169;84;21061;-92
2022/04/24 09:48:03;;;;;;;61.80;39.73;;;;;;;8.07;91.67;97914.20;4158487;84;20216;-91
2022/04/24 09:54:02;;;;;;;60.93;39.13;;;;;;;8.12;91.34;97907.82;4164617;84;21017;-88
2022/04/24 10:00:06;;;;;;;59.93;40.38;;;;;;;8.20;91.68;97903.95;4158282;84;21120;-87
2022/04/24 10:06:10;;;;;;;58.40;40.35;;;;;;;8.32;91.76;97902.83;4155666;84;21054;-89
2022/04/24 10:12:18;;;;;;;54.30;37.58;;;;;;;8.48;92.15;97897.23;4161863;84;21014;-88
2022/04/24 10:18:53;;;;;;;57.27;39.03;;;;;;;8.74;92.60;97893.38;4162832;84;21062;-88
2022/04/24 10:25:04;;;;;;;45.78;33.35;;;;;;;9.48;92.91;97873.02;4165194;84;21096;-88
2022/04/24 10:31:07;;;;;;;45.40;31.82;;;;;;;10.40;92.80;97862.48;4147635;84;21137;-87
2022/04/24 10:37:09;;;;;;;43.30;30.32;;;;;;;10.88;92.52;97861.17;4137424;84;21136;-89
2022/04/24 10:43:18;;;;;;;42.78;29.90;;;;;;;10.88;92.77;97844.13;4140816;84;22223;-89
2022/04/24 10:49:22;;;;;;;38.08;28.10;;;;;;;11.22;93.02;97834.64;4141283;84;21055;-88
2022/04/24 10:55:26;;;;;;;33.98;26.45;;;;;;;11.68;93.11;97815.75;4147500;84;21058;-87
2022/04/24 11:01:35;;;;;;;37.35;26.00;;;;;;;12.16;92.75;97812.20;4141309;84;21089;-89
2022/04/24 11:07:38;;;;;;;29.27;22.07;;;;;;;12.91;92.49;97787.09;4139046;84;21053;-92
2022/04/24 11:13:39;;;;;;;28.05;21.02;;;;;;;13.87;92.29;97791.16;4136732;84;21148;-89
2022/04/24 11:19:42;;;;;;;30.05;21.35;;;;;;;14.74;91.36;97795.09;4145177;84;21057;-88
2022/04/24 11:25:43;;;;;;;22.73;18.37;;;;;;;15.72;90.26;97780.70;4150272;84;21077;-89
2022/04/24 11:31:52;;;;;;;18.90;15.70;;;;;;;16.67;89.06;97779.38;4149705;84;22166;-89
2022/04/24 11:37:55;;;;;;;16.40;13.68;;;;;;;17.26;87.37;97776.43;4162892;84;21091;-88
2022/04/24 11:50:13;;;;;;;14.98;11.90;;;;;;;17.77;85.12;97769.46;4159407;84;21596;-89
2022/04/24 11:50:15;;;;;;;13.72;10.78;;;;;;;18.27;83.29;97749.73;4159377;83;21109;-88
2022/04/24 11:56:17;;;;;;;11.88;10.55;;;;;;;18.73;82.61;97757.77;4162048;84;22028;-89
2022/04/24 12:02:18;;;;;;;12.55;10.58;;;;;;;18.70;80.29;97753.14;4164626;84;21502;-89
2022/04/24 12:08:20;;;;;;;11.70;9.60;;;;;;;18.00;78.70;97747.61;4164825;83;21003;-90
2022/04/24 12:14:26;;;;;;;10.13;8.45;;;;;;;17.75;77.94;97742.84;4163642;84;21652;-89
2022/04/24 12:20:40;;;;;;;10.75;8.65;;;;;;;17.42;76.74;97745.20;4162525;84;21119;-88
2022/04/24 12:26:51;;;;;;;9.65;7.33;;;;;;;17.05;75.54;97728.91;4161726;84;21080;-88
2022/04/24 12:32:54;;;;;;;10.80;7.30;;;;;;;16.64;76.28;97722.25;4166999;84;21668;-88
2022/04/24 12:39:06;;;;;;;9.25;6.67;;;;;;;16.38;75.53;97721.31;4132733;84;21097;-88
2022/04/24 12:45:08;;;;;;;8.13;4.78;;;;;;;16.24;75.19;97718.38;4082894;82;21583;-89
2022/04/24 12:51:12;;;;;;;6.17;4.17;;;;;;;16.14;73.71;97713.20;4267489;82;21405;-88
2022/04/24 12:57:14;;;;;;;7.95;4.90;;;;;;;16.06;72.90;97713.25;4258254;82;21087;-88
2022/04/24 13:03:16;;;;;;;6.97;4.83;;;;;;;15.99;72.13;97692.16;4272370;82;21548;-88
2022/04/24 13:09:18;;;;;;;4.92;3.30;;;;;;;16.17;72.29;97681.34;4268996;82;21053;-88
2022/04/24 13:15:19;;;;;;;5.22;3.77;;;;;;;16.54;70.19;97684.69;4262918;82;21054;-87
2022/04/24 13:21:22;;;;;;;7.05;2.75;;;;;;;16.68;70.49;97675.92;4265266;82;20987;-92
2022/04/24 13:27:23;;;;;;;4.17;2.47;;;;;;;16.56;69.36;97665.68;4257625;82;21576;-87
2022/04/24 13:33:27;;;;;;;3.75;2.55;;;;;;;16.37;68.28;97644.59;4262019;82;21052;-91
2022/04/24 13:39:28;;;;;;;3.98;2.70;;;;;;;16.24;68.82;97623.75;4193485;83;21061;-87
2022/04/24 13:45:33;;;;;;;6.42;2.30;;;;;;;16.30;67.86;97627.48;4167274;83;21686;-91
2022/04/24 13:51:35;;;;;;;6.00;2.30;;;;;;;16.33;67.80;97617.71;4188609;82;21086;-87
2022/04/24 13:57:36;;;;;;;4.05;2.42;;;;;;;16.48;67.21;97614.66;4206065;82;21559;-90
2022/04/24 14:03:39;;;;;;;4.62;2.62;;;;;;;16.65;66.63;97597.29;4196053;82;21057;-89
2022/04/24 14:09:47;;;;;;;5.05;3.08;;;;;;;16.72;66.06;97584.02;4197973;82;21587;-87
2022/04/24 14:15:49;;;;;;;6.72;3.30;;;;;;;16.72;66.44;97570.80;4190490;82;21105;-92
2022/04/24 14:21:52;;;;;;;8.63;3.75;;;;;;;16.80;65.89;97569.33;4197811;82;21069;-88
2022/04/24 14:27:56;;;;;;;4.55;3.30;;;;;;;16.73;65.55;97569.58;4197600;82;21084;-89
2022/04/24 14:33:57;;;;;;;10.20;3.80;;;;;;;16.62;64.96;97569.18;4197840;82;21044;-89
2022/04/24 14:40:00;;;;;;;7.70;3.75;;;;;;;16.58;63.70;97561.64;4205213;82;21072;-89
2022/04/24 14:58:43;;;;;;;7.12;4.28;;;;;;;17.40;64.30;97565.07;4170425;83;21093;-87
2022/04/24 15:04:44;;;;;;;11.30;4.03;;;;;;;17.30;62.73;97569.03;4184590;83;21100;-88
2022/04/24 15:10:46;;;;;;;15.32;5.12;;;;;;;17.31;62.33;97544.29;4173740;83;21092;-91
2022/04/24 15:16:47;;;;;;;8.78;4.37;;;;;;;17.39;62.25;97547.55;4178762;83;21128;-88
2022/04/24 15:22:50;;;;;;;8.33;4.50;;;;;;;17.37;61.33;97548.00;4184715;83;21046;-91
2022/04/24 15:28:52;;;;;;;6.42;4.37;;;;;;;17.20;60.55;97548.85;4182785;83;21130;-88
2022/04/24 15:34:54;;;;;;;8.30;5.03;;;;;;;16.83;60.81;97543.56;4177716;83;22393;-91
2022/04/24 15:40:55;;;;;;;7.28;4.62;;;;;;;16.58;61.40;97532.03;4182264;83;21056;-86
2022/04/24 15:46:57;;;;;;;9.43;5.40;;;;;;;16.45;61.88;97515.34;4172018;83;21093;-89
2022/04/24 15:52:59;;;;;;;8.48;5.30;;;;;;;16.30;62.04;97521.93;4148669;84;21035;-89
2022/04/24 15:59:01;;;;;;;8.88;5.85;;;;;;;16.17;62.25;97516.30;4151578;84;21088;-88
2022/04/24 16:05:03;;;;;;;9.20;5.95;;;;;;;16.09;62.57;97513.62;4146832;83;21026;-86
2022/04/24 16:11:05;;;;;;;11.18;5.95;;;;;;;16.07;62.62;97496.75;4155919;84;21091;-90
2022/04/24 16:17:06;;;;;;;8.35;5.42;;;;;;;16.04;62.75;97480.45;4150037;84;21047;-89
2022/04/24 16:23:08;;;;;;;11.18;6.05;;;;;;;16.08;62.65;97468.70;4153837;84;21089;-90
2022/04/24 16:29:55;;;;;;;11.18;5.60;;;;;;;16.05;62.88;97465.45;4141259;84;21062;-91
2022/04/24 16:35:14;;;;;;;8.95;5.95;;;;;;;16.01;63.00;97475.84;4144615;84;21127;-89
2022/04/24 16:41:19;;;;;;;8.53;6.08;;;;;;;15.91;63.14;97461.78;4145292;84;21078;-89
2022/04/24 16:47:21;;;;;;;10.98;6.67;;;;;;;15.83;63.19;97468.00;4162533;83;21083;-88
2022/04/24 16:59:42;;;;;;;15.50;7.47;;;;;;;15.65;62.89;97479.02;4200831;83;21057;-89
2022/04/24 17:05:45;;;;;;;12.37;7.97;;;;;;;15.56;63.29;97472.64;4190526;83;21062;-93
2022/04/24 17:11:46;;;;;;;15.05;8.30;;;;;;;15.44;63.50;97483.09;4202504;83;21073;-89
2022/04/24 17:17:49;;;;;;;14.68;9.15;;;;;;;15.37;63.70;97487.41;4198154;83;21039;-90
2022/04/24 17:23:52;;;;;;;8.60;2.20;;;;;;;15.27;65.16;97531.23;4194496;83;21076;-89
2022/04/24 17:29:53;;;;;;;9.70;1.92;;;;;;;14.59;67.44;97630.03;4213710;83;22040;-88
2022/04/24 17:35:55;;;;;;;3.20;1.40;;;;;;;13.37;69.59;97629.03;4082177;82;10000461;-89
2022/04/24 17:41:57;;;;;;;3.95;1.17;;;;;;;12.70;72.77;97615.87;4187796;83;21017;-89
2022/04/24 17:47:59;;;;;;;5.08;1.10;;;;;;;12.24;72.54;97605.73;4189747;83;21113;-91
2022/04/24 17:54:04;;;;;;;3.80;1.37;;;;;;;11.96;74.50;97602.09;4185023;84;21073;-88
2022/04/24 18:00:08;;;;;;;7.30;3.50;;;;;;;11.58;76.82;97604.23;4184260;84;21065;-90
2022/04/24 18:06:13;;;;;;;10.93;7.70;;;;;;;11.43;75.79;97601.53;4180303;84;21121;-90
2022/04/24 18:12:15;;;;;;;7.40;4.53;;;;;;;11.28;76.96;97642.62;4181761;84;21986;-91
2022/04/24 18:18:17;;;;;;;9.33;4.40;;;;;;;11.22;77.65;97632.52;4185245;84;21096;-87
2022/04/24 18:24:19;;;;;;;9.05;4.05;;;;;;;11.20;77.35;97642.52;4184473;84;21017;-90
2022/04/24 18:30:21;;;;;;;7.62;4.25;;;;;;;11.09;78.10;97658.31;4190367;84;21081;-89
2022/04/24 18:42:46;;;;;;;10.25;6.67;;;;;;;10.71;79.48;97648.61;4196949;84;21098;-89
2022/04/24 18:48:49;;;;;;;11.25;6.72;;;;;;;10.39;81.79;97660.45;4210633;82;21607;-88
2022/04/24 18:54:50;;;;;;;12.00;6.60;;;;;;;10.34;81.26;97667.72;4230629;82;21084;-87
2022/04/24 19:00:52;;;;;;;12.98;6.87;;;;;;;10.35;81.64;97683.73;4232248;81;21561;-90
2022/04/24 19:13:15;;;;;;;10.50;6.35;;;;;;;10.34;81.93;97718.33;4247715;82;21065;-90
2022/04/24 19:19:16;;;;;;;11.70;6.58;;;;;;;10.15;81.98;97718.89;4243215;82;21060;-88
2022/04/24 19:25:19;;;;;;;17.15;8.65;;;;;;;10.05;82.43;97725.96;4248025;81;21072;-90
2022/04/24 19:31:21;;;;;;;14.10;8.08;;;;;;;9.88;81.88;97702.84;4256219;82;21072;-89
2022/04/24 19:37:22;;;;;;;47.30;20.27;;;;;;;9.61;82.68;97725.84;4249915;82;21084;-88
2022/04/24 19:43:24;;;;;;;28.42;13.95;;;;;;;9.52;83.13;97735.06;4244081;82;21104;-89
2022/04/24 19:49:26;;;;;;;51.25;26.97;;;;;;;9.41;83.49;97739.19;4219339;82;21053;-91
2022/04/24 19:55:28;;;;;;;45.17;24.55;;;;;;;9.35;83.48;97725.76;4177863;83;21140;-89
2022/04/24 20:01:30;;;;;;;48.78;26.35;;;;;;;9.29;83.93;97736.91;4190104;83;21122;-89
2022/04/24 20:07:33;;;;;;;42.85;25.00;;;;;;;9.20;84.22;97734.41;4182067;83;21960;-91
2022/04/24 20:13:37;;;;;;;25.20;14.68;;;;;;;9.14;84.76;97744.97;4189265;83;21029;-91
2022/04/24 20:19:39;;;;;;;21.70;12.53;;;;;;;9.12;85.22;97755.50;4197167;83;21956;-89
2022/04/24 20:25:40;;;;;;;25.00;15.20;;;;;;;9.15;86.50;97743.78;4194205;83;21037;-89
2022/04/24 20:31:44;;;;;;;21.42;13.28;;;;;;;9.14;86.78;97742.81;4186439;84;21201;-91
2022/04/24 20:37:45;;;;;;;23.62;12.93;;;;;;;9.07;87.13;97749.07;4179698;83;21117;-88
2022/04/24 20:43:46;;;;;;;24.18;12.28;;;;;;;8.95;86.75;97761.00;4202199;84;21063;-88
2022/04/24 20:49:49;;;;;;;20.68;10.50;;;;;;;9.03;87.22;97763.33;4216531;82;21091;-87
2022/04/24 20:55:51;;;;;;;16.00;9.23;;;;;;;9.13;89.06;97747.48;4219456;82;21454;-91
2022/04/24 21:01:53;;;;;;;16.23;8.20;;;;;;;9.26;89.33;97739.06;4206975;82;21289;-88
2022/04/24 21:07:54;;;;;;;13.20;7.17;;;;;;;9.46;91.81;97736.63;4212625;82;21069;-87
2022/04/24 21:13:56;;;;;;;14.98;7.17;;;;;;;9.62;92.94;97741.62;4143045;83;21103;-90
2022/04/24 21:19:57;;;;;;;11.70;5.45;;;;;;;9.69;92.28;97738.29;4145006;84;21670;-88
2022/04/24 21:25:58;;;;;;;11.25;5.25;;;;;;;9.81;92.70;97739.19;4141915;84;21644;-92
2022/04/24 21:32:00;;;;;;;12.50;6.00;;;;;;;9.91;91.55;97738.36;4143299;84;21115;-85
2022/04/24 21:38:01;;;;;;;10.03;6.33;;;;;;;9.91;90.31;97721.17;4141734;84;21012;-87
2022/04/24 21:44:03;;;;;;;20.08;7.42;;;;;;;9.84;90.66;97734.87;4146263;84;21785;-86
2022/04/24 21:50:07;;;;;;;11.05;6.62;;;;;;;9.77;90.73;97739.81;4149966;84;21585;-87
2022/04/24 21:56:09;;;;;;;12.28;5.87;;;;;;;9.75;91.08;97753.67;4166569;83;21099;-85
2022/04/24 22:08:31;;;;;;;15.95;9.28;;;;;;;9.61;91.50;97763.30;4155536;84;21034;-88
2022/04/24 22:14:32;;;;;;;16.48;9.20;;;;;;;9.58;91.88;97769.56;4144430;84;21033;-89
2022/04/24 22:20:33;;;;;;;16.27;8.88;;;;;;;9.60;91.67;97761.75;4177452;83;21062;-87
2022/04/24 22:26:35;;;;;;;13.32;7.53;;;;;;;9.57;92.23;97792.00;4148144;84;21025;-88
2022/04/24 22:32:37;;;;;;;22.30;10.55;;;;;;;9.59;92.46;97804.69;4152462;83;21402;-89
2022/04/24 22:38:38;;;;;;;18.70;8.75;;;;;;;9.55;91.98;97794.38;4158180;84;21046;-89
2022/04/24 22:44:41;;;;;;;14.43;8.63;;;;;;;9.45;93.87;97797.33;4151627;84;21047;-87
2022/04/24 22:50:44;;;;;;;8.95;6.05;;;;;;;9.44;92.80;97786.20;4146484;84;21601;-87
2022/04/24 22:56:46;;;;;;;9.48;4.87;;;;;;;9.43;92.35;97753.81;4131683;84;21058;-87
2022/04/24 23:02:47;;;;;;;10.50;5.22;;;;;;;9.43;92.27;97737.42;4138274;83;21109;-91
2022/04/24 23:08:48;;;;;;;9.63;4.60;;;;;;;9.42;94.03;97750.91;4136928;84;21669;-87
2022/04/24 23:14:49;;;;;;;6.33;4.05;;;;;;;9.52;93.79;97743.26;4138585;84;21034;-92
2022/04/24 23:20:51;;;;;;;8.10;4.10;;;;;;;9.58;93.23;97725.84;4223438;82;21056;-88
2022/04/24 23:26:54;;;;;;;7.97;3.77;;;;;;;9.63;93.13;97717.24;4223275;82;21546;-88
2022/04/24 23:32:56;;;;;;;6.55;3.42;;;;;;;9.63;93.26;97714.52;4241298;82;21043;-88
2022/04/24 23:38:57;;;;;;;8.80;3.58;;;;;;;9.70;93.07;97713.09;4224785;82;21052;-89
2022/04/24 23:44:59;;;;;;;7.05;3.83;;;;;;;9.55;92.70;97717.27;4224008;82;21024;-90
2022/04/24 23:51:00;;;;;;;6.22;3.87;;;;;;;9.41;92.58;97713.24;4226159;82;21953;-91
2022/04/24 23:57:02;;;;;;;5.80;3.27;;;;;;;9.26;92.45;97709.03;4219745;82;21091;-87
